createdAt,value
2022-08-05T00:01:36.135Z,3.50
2022-08-05T00:04:17.581Z,3.50
2022-08-05T00:06:47.017Z,3.10
2022-08-05T00:09:19.557Z,3.40
2022-08-05T00:11:55.349Z,3.20
2022-08-05T00:14:27.570Z,3.40
2022-08-05T00:16:59.055Z,3.50
2022-08-05T00:19:33.421Z,3.10
2022-08-05T00:22:02.367Z,3.57
2022-08-05T00:24:31.422Z,3.43
2022-08-05T00:26:59.825Z,3.47
2022-08-05T00:29:38.099Z,3.47
2022-08-05T00:32:12.809Z,2.77
2022-08-05T00:35:05.019Z,3.47
2022-08-05T00:37:35.756Z,3.33
2022-08-05T00:40:27.345Z,3.13
2022-08-05T00:42:58.284Z,3.10
2022-08-05T00:45:38.801Z,3.10
2022-08-05T00:48:13.466Z,2.83
2022-08-05T00:50:44.239Z,3.07
2022-08-05T00:54:01.456Z,2.80
2022-08-05T00:56:02.714Z,3.30
2022-08-05T00:58:31.546Z,2.70
2022-08-05T01:00:59.794Z,3.20
2022-08-05T01:03:30.871Z,3.00
2022-08-05T01:06:01.845Z,3.10
2022-08-05T01:08:43.310Z,2.67
2022-08-05T01:11:22.134Z,3.40
2022-08-05T01:14:04.524Z,3.00
2022-08-05T01:16:45.065Z,3.37
2022-08-05T01:19:56.130Z,3.57
2022-08-05T01:22:39.526Z,3.67
2022-08-05T01:25:41.102Z,3.33
2022-08-05T01:28:26.064Z,3.37
2022-08-05T01:30:58.272Z,3.07
2022-08-05T01:33:35.566Z,3.13
2022-08-05T01:36:13.152Z,3.00
2022-08-05T01:38:46.103Z,3.17
2022-08-05T01:41:18.411Z,3.03
2022-08-05T01:43:51.849Z,3.57
2022-08-05T01:46:42.963Z,3.60
2022-08-05T01:49:23.073Z,3.37
2022-08-05T01:51:58.258Z,3.67
2022-08-05T01:54:31.617Z,3.30
2022-08-05T01:58:10.553Z,3.10
2022-08-05T01:59:50.700Z,3.87
2022-08-05T02:02:19.006Z,3.77
2022-08-05T02:04:54.595Z,3.37
2022-08-05T02:07:24.948Z,3.77
2022-08-05T02:09:58.784Z,3.30
2022-08-05T02:12:34.487Z,3.63
2022-08-05T02:15:08.170Z,3.70
2022-08-05T02:18:32.692Z,3.10
2022-08-05T02:20:39.123Z,4.70
2022-08-05T02:23:10.712Z,3.90
2022-08-05T02:25:49.267Z,4.20
2022-08-05T02:28:28.816Z,3.67
2022-08-05T02:31:04.239Z,3.73
2022-08-05T02:33:38.114Z,4.30
2022-08-05T02:36:09.463Z,4.33
2022-08-05T02:38:37.816Z,4.10
2022-08-05T02:41:14.505Z,4.40
2022-08-05T02:44:02.379Z,3.93
2022-08-05T02:46:53.178Z,3.73
2022-08-05T02:49:24.962Z,4.23
2022-08-05T02:52:03.823Z,4.23
2022-08-05T02:54:36.974Z,4.07
2022-08-05T02:57:10.374Z,3.90
2022-08-05T02:59:55.266Z,4.07
2022-08-05T03:02:29.714Z,3.83
2022-08-05T03:04:58.641Z,4.17
2022-08-05T03:07:59.220Z,4.50
2022-08-05T03:10:22.095Z,4.10
2022-08-05T03:12:53.533Z,5.00
2022-08-05T03:15:23.552Z,4.13
2022-08-05T03:17:55.486Z,4.60
2022-08-05T03:20:24.897Z,4.53
2022-08-05T03:22:57.095Z,4.43
2022-08-05T03:25:34.137Z,4.00
2022-08-05T03:28:14.746Z,5.10
2022-08-05T03:30:47.012Z,5.20
2022-08-05T03:33:16.883Z,5.43
2022-08-05T03:35:46.521Z,5.13
2022-08-05T03:38:14.826Z,5.00
2022-08-05T03:40:45.187Z,5.73
2022-08-05T03:43:58.617Z,5.13
2022-08-05T03:46:03.870Z,5.70
2022-08-05T03:48:35.089Z,5.60
2022-08-05T03:52:38.380Z,6.73
2022-08-05T03:55:53.094Z,6.13
2022-08-05T03:56:51.941Z,5.60
2022-08-05T03:59:24.659Z,4.70
2022-08-05T04:01:53.233Z,5.50
2022-08-05T04:04:28.723Z,5.70
2022-08-05T04:06:56.995Z,5.90
2022-08-05T04:09:26.616Z,6.10
2022-08-05T04:11:56.881Z,6.00
2022-08-05T04:14:29.854Z,6.83
2022-08-05T04:16:59.939Z,5.83
2022-08-05T04:19:30.555Z,6.20
2022-08-05T04:22:09.009Z,6.47
2022-08-05T04:24:44.582Z,5.80
2022-08-05T04:27:33.070Z,6.17
2022-08-05T04:30:10.942Z,5.67
2022-08-05T04:32:39.416Z,6.50
2022-08-05T04:35:17.782Z,6.70
2022-08-05T04:38:02.811Z,6.37
2022-08-05T04:40:36.246Z,6.73
2022-08-05T04:43:04.988Z,6.10
2022-08-05T04:45:48.896Z,6.67
2022-08-05T04:48:27.935Z,5.97
2022-08-05T04:51:02.684Z,6.60
2022-08-05T04:53:39.761Z,6.10
2022-08-05T04:56:14.812Z,6.60
2022-08-05T04:58:57.613Z,6.27
2022-08-05T05:02:05.782Z,5.43
2022-08-05T05:04:15.260Z,5.40
2022-08-05T05:06:49.267Z,6.20
2022-08-05T05:09:20.340Z,5.37
2022-08-05T05:11:55.632Z,6.57
2022-08-05T05:14:27.961Z,5.43
2022-08-05T05:17:00.222Z,5.00
2022-08-05T05:19:39.572Z,5.40
2022-08-05T05:22:23.445Z,4.87
2022-08-05T05:24:56.702Z,5.07
2022-08-05T05:27:41.541Z,5.30
2022-08-05T05:30:15.745Z,5.60
2022-08-05T05:33:00.576Z,5.40
2022-08-05T05:35:37.953Z,6.23
2022-08-05T05:38:12.930Z,5.50
2022-08-05T05:40:49.656Z,5.53
2022-08-05T05:43:22.135Z,5.40
2022-08-05T05:46:12.257Z,5.20
2022-08-05T05:48:44.275Z,4.90
2022-08-05T05:51:15.453Z,4.43
2022-08-05T05:53:54.072Z,5.13
2022-08-05T05:56:33.110Z,4.87
2022-08-05T05:59:05.272Z,4.90
2022-08-05T06:01:37.796Z,4.97
2022-08-05T06:04:11.378Z,4.50
2022-08-05T06:06:41.778Z,4.90
2022-08-05T06:09:16.949Z,4.63
2022-08-05T06:11:59.337Z,5.20
2022-08-05T06:14:28.812Z,4.53
2022-08-05T06:16:57.931Z,4.53
2022-08-05T06:19:35.223Z,4.20
2022-08-05T06:22:04.399Z,4.30
2022-08-05T06:24:36.414Z,4.00
2022-08-05T06:27:06.228Z,4.77
2022-08-05T06:30:02.763Z,4.30
2022-08-05T06:32:34.394Z,4.50
2022-08-05T06:35:05.817Z,4.00
2022-08-05T06:37:56.273Z,4.10
2022-08-05T06:40:28.012Z,4.03
2022-08-05T06:43:00.759Z,3.60
2022-08-05T06:45:44.704Z,3.40
2022-08-05T06:48:55.437Z,3.77
2022-08-05T06:51:09.621Z,3.00
2022-08-05T06:53:39.617Z,3.27
2022-08-05T06:56:11.697Z,3.27
2022-08-05T06:58:55.180Z,3.17
2022-08-05T07:01:23.532Z,3.37
2022-08-05T07:03:56.249Z,3.10
2022-08-05T07:06:24.450Z,3.00
2022-08-05T07:08:55.952Z,2.40
2022-08-05T07:11:30.958Z,2.80
2022-08-05T07:14:20.396Z,2.50
2022-08-05T07:17:59.946Z,2.43
2022-08-05T07:20:34.055Z,2.40
2022-08-05T07:22:38.854Z,2.83
2022-08-05T07:25:21.780Z,2.40
2022-08-05T07:27:57.565Z,2.70
2022-08-05T07:30:33.313Z,2.20
2022-08-05T07:33:05.100Z,2.27
2022-08-05T07:36:04.910Z,2.47
2022-08-05T07:38:32.322Z,2.30
2022-08-05T07:42:09.118Z,2.17
2022-08-05T07:43:56.546Z,2.50
2022-08-05T07:46:26.626Z,2.50
2022-08-05T07:49:03.874Z,2.30
2022-08-05T07:51:36.272Z,2.70
2022-08-05T07:54:08.484Z,2.47
2022-08-05T07:57:01.237Z,2.53
2022-08-05T07:59:38.625Z,2.40
2022-08-05T08:02:16.028Z,2.27
2022-08-05T08:04:47.288Z,1.97
2022-08-05T08:07:15.872Z,2.20
2022-08-05T08:09:44.378Z,1.60
2022-08-05T08:12:37.172Z,2.60
2022-08-05T08:15:04.329Z,2.27
2022-08-05T08:17:33.234Z,1.83
2022-08-05T08:20:23.413Z,2.17
2022-08-05T08:22:55.816Z,2.00
2022-08-05T08:25:26.982Z,2.03
2022-08-05T08:28:18.241Z,1.60
2022-08-05T08:30:50.069Z,1.97
2022-08-05T08:33:19.818Z,2.67
2022-08-05T08:35:52.841Z,2.10
2022-08-05T08:38:35.512Z,2.53
2022-08-05T08:41:08.604Z,1.37
2022-08-05T08:45:23.124Z,1.47
2022-08-05T08:46:28.782Z,1.37
2022-08-05T08:49:06.268Z,1.80
2022-08-05T08:52:03.075Z,2.00
2022-08-05T08:54:36.396Z,1.80
2022-08-05T08:57:11.281Z,1.50
2022-08-05T08:59:41.864Z,1.63
2022-08-05T09:02:19.120Z,1.67
2022-08-05T09:05:16.525Z,2.40
2022-08-05T09:07:39.795Z,2.13
2022-08-05T09:10:27.925Z,2.47
2022-08-05T09:13:04.545Z,1.90
2022-08-05T09:15:37.008Z,1.67
2022-08-05T09:18:09.465Z,1.67
2022-08-05T09:20:38.412Z,1.90
2022-08-05T09:23:19.934Z,2.20
2022-08-05T09:26:01.205Z,1.90
2022-08-05T09:28:34.299Z,1.70
2022-08-05T09:31:23.542Z,2.13
2022-08-05T09:33:56.630Z,1.80
2022-08-05T09:36:27.310Z,2.07
2022-08-05T09:39:00.277Z,1.93
2022-08-05T09:41:33.119Z,1.90
2022-08-05T09:44:06.887Z,2.00
2022-08-05T09:46:35.584Z,1.73
2022-08-05T09:49:19.133Z,1.43
2022-08-05T09:51:49.462Z,1.70
2022-08-05T09:54:21.180Z,1.70
2022-08-05T09:56:57.391Z,1.90
2022-08-05T09:59:27.624Z,1.80
2022-08-05T10:01:57.777Z,2.10
2022-08-05T10:04:38.493Z,1.67
2022-08-05T10:07:20.020Z,2.30
2022-08-05T10:10:14.339Z,2.00
2022-08-05T10:12:50.038Z,2.13
2022-08-05T10:15:21.859Z,2.50
2022-08-05T10:18:13.774Z,2.00
2022-08-05T10:20:48.287Z,2.40
2022-08-05T10:23:34.263Z,2.10
2022-08-05T10:26:14.513Z,2.50
2022-08-05T10:28:44.948Z,2.80
2022-08-05T10:32:54.723Z,3.00
2022-08-05T10:34:03.959Z,2.50
2022-08-05T10:36:36.980Z,2.97
2022-08-05T10:39:10.326Z,2.50
2022-08-05T10:41:48.426Z,1.90
2022-08-05T10:44:19.535Z,2.30
2022-08-05T10:46:50.581Z,3.40
2022-08-05T10:49:26.838Z,1.87
2022-08-05T10:52:00.463Z,2.37
2022-08-05T10:54:56.318Z,2.03
2022-08-05T10:57:31.863Z,2.00
2022-08-05T11:00:18.652Z,2.67
2022-08-05T11:03:24.624Z,1.90
2022-08-05T11:06:16.276Z,2.40
2022-08-05T11:09:39.123Z,2.40
2022-08-05T11:12:50.834Z,2.13
2022-08-05T11:16:00.210Z,1.80
2022-08-05T11:18:30.010Z,2.03
2022-08-05T11:21:02.065Z,2.13
2022-08-05T11:24:02.996Z,1.90
2022-08-05T11:26:28.545Z,2.40
2022-08-05T11:29:12.667Z,2.60
2022-08-05T11:31:56.417Z,2.43
2022-08-05T11:34:52.165Z,2.10
2022-08-05T11:38:29.051Z,1.87
2022-08-05T11:41:14.153Z,1.57
2022-08-05T11:44:06.575Z,2.07
2022-08-05T11:46:37.744Z,2.17
2022-08-05T11:49:25.824Z,1.90
2022-08-05T11:51:54.372Z,1.97
2022-08-05T11:54:33.321Z,2.13
2022-08-05T11:57:08.013Z,2.23
2022-08-05T11:59:53.424Z,2.27
2022-08-05T12:02:31.467Z,2.60
2022-08-05T12:05:07.917Z,2.50
2022-08-05T12:08:07.900Z,2.30
2022-08-05T12:10:42.866Z,2.40
2022-08-05T12:13:28.141Z,2.13
2022-08-05T12:16:14.388Z,2.30
2022-08-05T12:18:49.349Z,1.90
2022-08-05T12:21:23.933Z,2.07
2022-08-05T12:24:04.991Z,2.17
2022-08-05T12:26:35.409Z,1.97
2022-08-05T12:29:05.205Z,2.10
2022-08-05T12:31:41.532Z,2.50
2022-08-05T12:34:21.096Z,3.00
2022-08-05T12:36:53.387Z,2.60
2022-08-05T12:39:22.106Z,2.20
2022-08-05T12:41:57.911Z,1.80
2022-08-05T12:44:33.175Z,2.23
2022-08-05T12:47:04.052Z,2.00
2022-08-05T12:50:04.310Z,2.20
2022-08-05T12:52:39.467Z,1.80
2022-08-05T12:55:22.470Z,1.90
2022-08-05T12:58:38.872Z,2.23
2022-08-05T13:02:04.062Z,1.90
2022-08-05T13:03:33.525Z,1.70
2022-08-05T13:06:02.043Z,2.20
2022-08-05T13:08:32.271Z,2.70
2022-08-05T13:11:02.186Z,3.07
2022-08-05T13:14:04.608Z,3.43
2022-08-05T13:16:25.353Z,3.50
2022-08-05T13:18:58.890Z,3.50
2022-08-05T13:21:28.300Z,3.40
2022-08-05T13:24:08.740Z,3.77
2022-08-05T13:26:37.334Z,3.00
2022-08-05T13:29:05.918Z,2.90
2022-08-05T13:32:03.705Z,2.30
2022-08-05T13:34:26.278Z,2.87
2022-08-05T13:36:54.995Z,2.83
2022-08-05T13:40:14.484Z,2.23
2022-08-05T13:42:13.986Z,2.30
2022-08-05T13:44:45.317Z,1.50
2022-08-05T13:47:35.950Z,2.10
2022-08-05T13:50:06.615Z,1.90
2022-08-05T13:52:37.911Z,1.70
2022-08-05T13:55:07.881Z,1.73
2022-08-05T13:57:50.825Z,1.97
2022-08-05T14:00:26.975Z,1.60
2022-08-05T14:02:57.095Z,1.53
2022-08-05T14:05:47.919Z,1.93
2022-08-05T14:08:20.499Z,1.50
2022-08-05T14:10:49.869Z,1.60
2022-08-05T14:13:18.121Z,2.47
2022-08-05T14:16:05.784Z,1.93
2022-08-05T14:18:34.589Z,2.40
2022-08-05T14:22:07.136Z,1.97
2022-08-05T14:23:56.116Z,1.97
2022-08-05T14:26:38.625Z,1.73
2022-08-05T14:29:16.244Z,1.80
2022-08-05T14:32:03.085Z,2.07
2022-08-05T14:34:35.132Z,1.93
2022-08-05T14:37:05.359Z,2.03
2022-08-05T14:39:49.452Z,2.13
2022-08-05T14:42:22.324Z,1.70
2022-08-05T14:44:50.749Z,2.10
2022-08-05T14:48:02.613Z,1.80
2022-08-05T14:50:17.715Z,2.03
2022-08-05T14:52:56.896Z,1.73
2022-08-05T14:55:38.589Z,2.33
2022-08-05T14:58:11.389Z,1.67
2022-08-05T15:00:58.893Z,1.80
2022-08-05T15:03:33.201Z,2.17
2022-08-05T15:06:06.957Z,2.50
2022-08-05T15:08:59.260Z,2.20
2022-08-05T15:11:51.372Z,2.23
2022-08-05T15:14:34.275Z,1.80
2022-08-05T15:17:04.542Z,1.93
2022-08-05T15:19:32.930Z,2.20
2022-08-05T15:22:01.844Z,2.70
2022-08-05T15:24:31.604Z,2.07
2022-08-05T15:26:59.897Z,2.63
2022-08-05T15:29:30.042Z,2.63
2022-08-05T15:32:02.233Z,2.30
2022-08-05T15:34:33.539Z,2.43
2022-08-05T15:37:06.454Z,2.53
2022-08-05T15:41:02.516Z,2.57
2022-08-05T15:42:53.896Z,2.80
2022-08-05T15:45:36.315Z,2.70
2022-08-05T15:48:07.416Z,2.70
2022-08-05T15:50:36.139Z,3.07
2022-08-05T15:53:06.426Z,3.80
2022-08-05T15:56:02.908Z,3.07
2022-08-05T15:58:28.246Z,3.50
2022-08-05T16:01:11.874Z,3.47
2022-08-05T16:03:48.389Z,3.60
2022-08-05T16:06:19.960Z,3.80
2022-08-05T16:08:50.863Z,4.27
2022-08-05T16:11:40.109Z,4.10
2022-08-05T16:14:17.317Z,3.20
2022-08-05T16:16:47.188Z,3.90
2022-08-05T16:19:18.934Z,3.67
2022-08-05T16:22:00.799Z,3.20
2022-08-05T16:24:39.730Z,3.73
2022-08-05T16:27:15.928Z,3.30
2022-08-05T16:29:50.192Z,3.13
2022-08-05T16:32:23.229Z,3.47
2022-08-05T16:34:57.212Z,3.57
2022-08-05T16:38:03.039Z,3.37
2022-08-05T16:40:26.633Z,3.40
2022-08-05T16:42:59.155Z,3.40
2022-08-05T16:46:03.550Z,2.97
2022-08-05T16:48:25.500Z,3.43
2022-08-05T16:50:54.650Z,3.57
2022-08-05T16:53:31.815Z,4.27
2022-08-05T16:56:00.797Z,4.13
2022-08-05T16:58:31.561Z,3.03
2022-08-05T17:01:01.240Z,3.30
2022-08-05T17:03:34.903Z,4.20
2022-08-05T17:06:03.252Z,4.27
2022-08-05T17:08:35.920Z,3.93
2022-08-05T17:11:12.820Z,4.43
2022-08-05T17:13:46.693Z,4.07
2022-08-05T17:16:35.847Z,3.73
2022-08-05T17:19:03.255Z,4.67
2022-08-05T17:21:36.766Z,4.10
2022-08-05T17:24:19.689Z,4.80
2022-08-05T17:26:55.381Z,4.23
2022-08-05T17:29:33.224Z,3.43
2022-08-05T17:32:02.403Z,3.50
2022-08-05T17:34:32.483Z,3.50
2022-08-05T17:37:04.524Z,2.77
2022-08-05T17:39:41.137Z,2.50
2022-08-05T17:42:17.919Z,2.00
2022-08-05T17:44:51.606Z,3.00
2022-08-05T17:47:21.883Z,2.40
2022-08-05T17:50:00.475Z,1.80
2022-08-05T17:52:32.786Z,1.97
2022-08-05T17:55:01.167Z,1.43
2022-08-05T17:57:31.479Z,1.40
2022-08-05T18:00:05.323Z,0.90
2022-08-05T18:02:34.372Z,1.37
2022-08-05T18:05:06.386Z,0.93
2022-08-05T18:07:41.758Z,1.30
2022-08-05T18:10:14.112Z,1.40
2022-08-05T18:12:49.704Z,1.03
2022-08-05T18:15:19.849Z,0.90
2022-08-05T18:17:59.100Z,0.90
2022-08-05T18:20:31.855Z,0.80
2022-08-05T18:23:09.342Z,1.00
2022-08-05T18:25:44.765Z,0.90
2022-08-05T18:28:16.600Z,0.60
2022-08-05T18:30:50.778Z,0.70
2022-08-05T18:33:22.970Z,0.60
2022-08-05T18:36:03.604Z,1.00
2022-08-05T18:38:35.963Z,0.50
2022-08-05T18:41:56.636Z,0.70
2022-08-05T18:43:52.740Z,0.67
2022-08-05T18:46:22.333Z,0.50
2022-08-05T18:48:54.411Z,0.57
2022-08-05T18:52:06.598Z,0.70
2022-08-05T18:54:28.482Z,0.80
2022-08-05T18:57:01.345Z,0.80
2022-08-05T18:59:43.686Z,0.70
2022-08-05T19:02:26.786Z,0.70
2022-08-05T19:05:03.189Z,0.80
2022-08-05T19:07:46.584Z,0.67
2022-08-05T19:10:15.224Z,0.80
2022-08-05T19:12:43.753Z,1.00
2022-08-05T19:15:54.663Z,0.90
2022-08-05T19:18:09.664Z,0.70
2022-08-05T19:20:41.795Z,1.00
2022-08-05T19:24:06.210Z,1.17
2022-08-05T19:26:02.153Z,1.00
2022-08-05T19:28:32.692Z,1.20
2022-08-05T19:31:05.730Z,1.20
2022-08-05T19:33:38.051Z,0.90
2022-08-05T19:36:10.070Z,1.10
2022-08-05T19:38:43.823Z,1.00
2022-08-05T19:41:12.082Z,1.17
2022-08-05T19:44:04.654Z,0.90
2022-08-05T19:46:31.052Z,1.20
2022-08-05T19:49:02.929Z,0.80
2022-08-05T19:52:05.154Z,1.00
2022-08-05T19:54:27.267Z,1.40
2022-08-05T19:57:02.055Z,1.23
2022-08-05T20:00:00.266Z,1.20
2022-08-05T20:02:19.153Z,1.20
2022-08-05T20:04:48.842Z,1.20
2022-08-05T20:07:47.212Z,1.00
2022-08-05T20:10:13.547Z,1.10
2022-08-05T20:12:47.510Z,1.13
2022-08-05T20:15:23.179Z,1.50
2022-08-05T20:18:10.505Z,0.90
2022-08-05T20:20:56.244Z,1.40
2022-08-05T20:23:39.472Z,1.20
2022-08-05T20:26:15.256Z,1.00
2022-08-05T20:28:45.885Z,1.07
2022-08-05T20:31:16.482Z,1.10
2022-08-05T20:33:45.684Z,1.20
2022-08-05T20:36:18.106Z,1.00
2022-08-05T20:38:54.282Z,1.17
2022-08-05T20:41:44.050Z,1.10
2022-08-05T20:44:19.122Z,1.30
2022-08-05T20:46:58.924Z,1.37
2022-08-05T20:49:27.270Z,1.30
2022-08-05T20:51:57.674Z,1.30
2022-08-05T20:54:43.142Z,1.30
2022-08-05T20:57:42.678Z,1.17
2022-08-05T21:00:20.054Z,1.13
2022-08-05T21:02:56.069Z,1.17
2022-08-05T21:05:25.489Z,1.30
2022-08-05T21:08:08.125Z,1.20
2022-08-05T21:10:36.597Z,1.10
2022-08-05T21:13:11.098Z,1.33
2022-08-05T21:15:44.535Z,1.90
2022-08-05T21:18:19.478Z,1.20
2022-08-05T21:20:51.507Z,1.13
2022-08-05T21:23:22.669Z,1.23
2022-08-05T21:25:50.889Z,1.23
2022-08-05T21:28:23.664Z,1.20
2022-08-05T21:30:52.274Z,1.40
2022-08-05T21:33:22.505Z,1.73
2022-08-05T21:35:58.162Z,1.47
2022-08-05T21:38:28.995Z,1.00
2022-08-05T21:40:57.297Z,1.27
2022-08-05T21:43:26.128Z,1.40
2022-08-05T21:46:01.858Z,1.30
2022-08-05T21:48:32.352Z,1.50
2022-08-05T21:51:01.768Z,1.20
2022-08-05T21:53:31.397Z,1.30
2022-08-05T21:56:16.912Z,1.30
2022-08-05T21:58:57.025Z,1.40
2022-08-05T22:01:26.630Z,1.50
2022-08-05T22:03:55.204Z,1.50
2022-08-05T22:06:35.458Z,1.40
2022-08-05T22:09:13.145Z,1.20
2022-08-05T22:11:43.699Z,1.30
2022-08-05T22:14:35.126Z,1.30
2022-08-05T22:17:06.557Z,1.47
2022-08-05T22:20:00.467Z,1.50
2022-08-05T22:22:28.164Z,1.50
2022-08-05T22:25:21.116Z,1.53
2022-08-05T22:28:08.943Z,1.40
2022-08-05T22:30:55.690Z,1.40
2022-08-05T22:33:55.440Z,1.93
2022-08-05T22:36:15.345Z,1.20
2022-08-05T22:38:48.260Z,1.53
2022-08-05T22:42:04.370Z,1.33
2022-08-05T22:44:08.240Z,1.50
2022-08-05T22:46:39.592Z,1.80
2022-08-05T22:49:12.336Z,1.60
2022-08-05T22:52:04.875Z,1.37
2022-08-05T22:54:35.107Z,1.47
2022-08-05T22:57:05.608Z,1.87
2022-08-05T22:59:48.265Z,1.40
2022-08-05T23:02:29.717Z,1.60
2022-08-05T23:05:01.490Z,1.70
2022-08-05T23:07:30.501Z,1.60
2022-08-05T23:10:01.994Z,1.70
2022-08-05T23:12:33.300Z,1.30
2022-08-05T23:15:03.591Z,1.17
2022-08-05T23:17:37.438Z,1.40
2022-08-05T23:20:20.835Z,1.10
2022-08-05T23:22:55.868Z,1.47
2022-08-05T23:25:52.345Z,1.63
2022-08-05T23:28:15.823Z,1.37
2022-08-05T23:30:53.569Z,1.30
2022-08-05T23:34:02.670Z,1.20
2022-08-05T23:36:13.601Z,0.70
2022-08-05T23:38:43.534Z,1.00
2022-08-05T23:41:12.884Z,1.00
2022-08-05T23:44:06.215Z,0.60
2022-08-05T23:46:30.811Z,0.90
2022-08-05T23:48:59.591Z,0.70
2022-08-05T23:51:53.881Z,1.00
2022-08-05T23:54:26.132Z,0.60
2022-08-05T23:56:58.228Z,1.20
